Flight Track Log - Related Links

Times and Time Zones

All times are in EDT time to prevent confusion due to time zone crossing. See the SWA286 flight status page for this flight to view local times or setup timezone preferences in your user account.

Time Position Orientation Groundspeed Altitude Reporting Facility
EDT Latitude Longitude Course Direction KTS MPH feet Rate Location/Type
Sun 04:39:51 PM 36.1000 -86.6833 277° West 145 167 1,300  Level Nashville TRACON
Sun 04:40:39 PM 36.0833 -86.7333 248° West 196 226 2,300 2,167 Climbing Nashville TRACON
Sun 04:41:39 PM 36.0833 -86.8000 270° West 251 289 5,200 3,019 Climbing Nashville TRACON
Sun 04:43:20 PM 36.1189 -86.9808 284° West 310 357 10,400 2,832 Climbing Memphis Center
Sun 04:44:20 PM 36.1778 -87.0786 307° West 328 377 12,800 2,850 Climbing Memphis Center
Sun 04:45:00 PM 36.2850 -87.3503 277° West  Level FlightAware Approximate
Sun 04:45:20 PM 36.2431 -87.1842 307° West 381 438 16,100  Level Memphis Center
Sun 04:46:20 PM 36.2836 -87.3086 292° West 392 451 18,800 2,900 Climbing Memphis Center
Sun 04:47:20 PM 36.3056 -87.4442 281° West 392 451 21,900 2,600 Climbing Memphis Center
Sun 04:48:20 PM 36.3419 -87.5667 290° West 409 471 24,000 2,250 Climbing Memphis Center
Sun 04:49:20 PM 36.3986 -87.6886 300° West 415 478 26,400 1,900 Climbing Memphis Center
Sun 04:50:20 PM 36.4556 -87.8181 299° West 420 483 27,800 1,500 Climbing Memphis Center
Sun 04:51:20 PM 36.5167 -87.9556 299° West 439 505 29,400 1,900 Climbing Memphis Center
Sun 04:52:20 PM 36.5775 -88.0856 300° West 444 511 31,600 2,050 Climbing Memphis Center
Sun 04:53:20 PM 36.6428 -88.2339 299° West 444 511 33,500 1,650 Climbing Memphis Center
Sun 04:54:20 PM 36.6700 -88.3753 284° West 422 486 34,900 1,400 Climbing Memphis Center
Sun 04:55:20 PM 36.7036 -88.5142 287° West 422 486 36,300 1,300 Climbing Memphis Center
Sun 04:56:20 PM 36.7367 -88.6558 286° West 422 486 37,500 850 Climbing Memphis Center
Sun 04:57:20 PM 36.7719 -88.7950 288° West 422 486 38,000 250 Climbing Memphis Center
Sun 04:58:20 PM 36.8050 -88.9317 287° West 422 486 38,000  Level Memphis Center
Sun 04:59:20 PM 36.8419 -89.0736 288° West 422 486 38,000  Level Memphis Center
Sun 05:00:20 PM 36.8767 -89.2106 288° West 422 486 38,000  Level Memphis Center
Sun 05:01:20 PM 36.9089 -89.3503 286° West 422 486 38,000  Level Memphis Center
Sun 05:02:20 PM 36.9433 -89.4925 287° West 422 486 38,000  Level Memphis Center
Sun 05:03:20 PM 36.9756 -89.6297 286° West 422 486 38,000  Level Memphis Center
Sun 05:04:20 PM 37.0097 -89.7697 287° West 422 486 38,000  Level Memphis Center
Sun 05:05:20 PM 37.0394 -89.9072 285° West 422 486 38,000  Level Memphis Center
Sun 05:06:20 PM 37.0733 -90.0475 287° West 422 486 38,000  Level Memphis Center
Sun 05:07:20 PM 37.1047 -90.1828 286° West 417 480 38,000  Level Memphis Center
Sun 05:09:53 PM 37.1811 -90.4972 287° West 407 468 38,000  Level Kansas City Center
Sun 05:10:54 PM 37.2192 -90.6625 286° West 410 472 38,000  Level Kansas City Center
Sun 05:11:55 PM 37.2486 -90.7922 286° West 412 474 38,000  Level Kansas City Center
Sun 05:13:00 PM 37.2792 -90.9311 285° West 413 475 38,000  Level Kansas City Center
Sun 05:14:00 PM 37.3111 -91.0725 286° West 417 480 38,000  Level Kansas City Center
Sun 05:15:04 PM 37.3425 -91.2131 286° West 417 480 38,000  Level Kansas City Center
Sun 05:16:05 PM 37.3811 -91.3833 286° West 420 483 38,000  Level Kansas City Center
Sun 05:17:06 PM 37.4119 -91.5242 285° West 419 482 38,000  Level Kansas City Center
Sun 05:18:09 PM 37.4425 -91.6658 285° West 417 480 38,000  Level Kansas City Center
Sun 05:19:10 PM 37.4739 -91.8058 286° West 417 480 38,000  Level Kansas City Center
Sun 05:20:12 PM 37.5042 -91.9456 285° West 412 474 38,000  Level Kansas City Center
Sun 05:21:15 PM 37.5342 -92.0844 285° West 410 472 38,000  Level Kansas City Center
Sun 05:22:15 PM 37.5639 -92.2208 285° West 405 466 38,000  Level Kansas City Center
Sun 05:23:19 PM 37.5925 -92.3544 285° West 398 458 38,000  Level Kansas City Center
Sun 05:24:20 PM 37.6267 -92.5128 285° West 391 450 38,000  Level Kansas City Center
Sun 05:25:24 PM 37.6550 -92.6444 285° West 387 445 38,000  Level Kansas City Center
Sun 05:26:24 PM 37.6822 -92.7733 285° West 381 438 38,000  Level Kansas City Center
Sun 05:27:28 PM 37.7092 -92.9011 285° West 376 433 38,000  Level Kansas City Center
Sun 05:28:29 PM 37.7350 -93.0267 285° West 371 427 38,000  Level Kansas City Center
Sun 05:29:30 PM 37.7631 -93.1528 286° West 371 427 38,000  Level Kansas City Center
Sun 05:30:34 PM 37.7894 -93.2803 285° West 372 428 38,000  Level Kansas City Center
Sun 05:31:36 PM 37.8136 -93.4086 283° West 374 430 38,000  Level Kansas City Center
Sun 05:32:37 PM 37.8458 -93.5625 285° West 376 433 38,000  Level Kansas City Center
Sun 05:33:38 PM 37.8711 -93.6906 284° West 375 432 38,000  Level Kansas City Center
Sun 05:34:39 PM 37.8978 -93.8189 285° West 376 433 38,000  Level Kansas City Center
Sun 05:35:43 PM 37.9233 -93.9467 284° West 374 430 38,000  Level Kansas City Center
Sun 05:36:43 PM 37.9481 -94.0744 284° West 373 429 38,000  Level Kansas City Center
Sun 05:37:47 PM 37.9758 -94.2164 284° West 376 433 38,000  Level Kansas City Center
Sun 05:38:48 PM 38.0017 -94.3403 285° West 378 435 38,000  Level Kansas City Center
Sun 05:39:49 PM 38.0286 -94.4856 283° West 379 436 38,000  Level Kansas City Center
Sun 05:40:53 PM 38.0542 -94.6100 285° West 378 435 38,000  Level Kansas City Center
Sun 05:41:54 PM 38.0806 -94.7558 283° West 380 437 38,000  Level Kansas City Center
Sun 05:42:55 PM 38.1033 -94.8811 283° West 380 437 38,000  Level Kansas City Center
Sun 05:43:56 PM 38.1269 -95.0036 284° West 375 432 38,000  Level Kansas City Center
Sun 05:45:00 PM 38.1539 -95.1475 283° West 374 430 38,000  Level Kansas City Center
Sun 05:46:00 PM 38.1769 -95.2694 284° West 370 426 38,000  Level Kansas City Center
Sun 05:47:02 PM 38.2028 -95.4108 283° West 367 422 38,000  Level Kansas City Center
Sun 05:48:06 PM 38.2258 -95.5317 284° West 366 421 38,000  Level Kansas City Center
Sun 05:49:06 PM 38.2519 -95.6728 283° West 366 421 38,000  Level Kansas City Center
Sun 05:50:11 PM 38.2736 -95.7919 283° West 362 417 38,000  Level Kansas City Center
Sun 05:51:12 PM 38.2953 -95.9122 283° West 363 418 38,000  Level Kansas City Center
Sun 05:52:13 PM 38.3206 -96.0528 283° West 364 419 38,000  Level Kansas City Center
Sun 05:53:13 PM 38.3411 -96.1711 283° West 360 414 38,000  Level Kansas City Center
Sun 05:54:16 PM 38.3669 -96.3131 283° West 365 420 38,000  Level Kansas City Center
Sun 05:55:17 PM 38.3881 -96.4331 283° West 364 419 38,000  Level Kansas City Center
Sun 05:56:19 PM 38.4078 -96.5533 282° West 368 423 38,000  Level Kansas City Center
Sun 05:57:22 PM 38.4344 -96.7039 283° West 366 421 38,000  Level Kansas City Center
Sun 05:58:23 PM 38.4561 -96.8278 283° West 361 415 38,000  Level Kansas City Center
Sun 05:59:24 PM 38.4767 -96.9519 282° West 358 412 38,000  Level Kansas City Center
Sun 06:00:25 PM 38.4981 -97.0761 282° West 360 414 38,000  Level Kansas City Center
Sun 06:01:29 PM 38.5197 -97.2006 283° West 361 415 38,000  Level Kansas City Center
Sun 06:02:29 PM 38.5394 -97.3231 282° West 355 409 38,000  Level Kansas City Center
Sun 06:03:33 PM 38.5586 -97.4428 282° West 348 400 38,000  Level Kansas City Center
Sun 06:04:33 PM 38.5828 -97.5858 282° West 346 398 38,000  Level Kansas City Center
Sun 06:05:34 PM 38.6022 -97.7053 282° West 346 398 38,000  Level Kansas City Center
Sun 06:06:38 PM 38.6219 -97.8236 282° West 343 395 38,000  Level Kansas City Center
Sun 06:07:38 PM 38.6411 -97.9444 282° West 348 400 38,000  Level Kansas City Center
Sun 06:08:41 PM 38.6608 -98.0675 282° West 354 407 38,000  Level Kansas City Center
Sun 06:09:43 PM 38.6811 -98.1908 282° West 355 409 38,000  Level Kansas City Center
Sun 06:10:42 PM 38.7044 -98.3389 281° West 356 410 38,000  Level Kansas City Center
Sun 06:11:46 PM 38.7239 -98.4647 281° West 360 414 38,000  Level Kansas City Center
Sun 06:12:48 PM 38.7431 -98.5878 281° West 355 409 38,000  Level Kansas City Center
Sun 06:13:50 PM 38.7625 -98.7119 281° West 356 410 38,000  Level Kansas City Center
Sun 06:14:50 PM 38.7817 -98.8339 281° West 351 404 38,000  Level Kansas City Center
Sun 06:15:53 PM 38.7994 -98.9553 281° West 347 399 38,000  Level Kansas City Center
Sun 06:16:54 PM 38.8178 -99.0733 281° West 340 391 38,000  Level Kansas City Center
Sun 06:19:01 PM 38.8492 -99.3450 279° West 335 386 38,000  Level Denver Center
Sun 06:20:03 PM 38.8497 -99.4597 270° West 335 386 38,000  Level Denver Center
Sun 06:21:05 PM 38.8517 -99.5936 271° West 338 389 38,000  Level Denver Center
Sun 06:22:07 PM 38.8519 -99.7072 270° West 334 384 38,000  Level Denver Center
Sun 06:23:08 PM 38.8533 -99.8403 271° West 334 384 38,000  Level Denver Center
Sun 06:24:10 PM 38.8533 -99.9561 270° West 338 389 38,000  Level Denver Center
Sun 06:25:12 PM 38.8544 -100.0889 271° West 335 386 38,000  Level Denver Center
Sun 06:26:14 PM 38.8544 -100.2047 270° West 340 391 38,000  Level Denver Center
Sun 06:27:15 PM 38.8553 -100.3383 271° West 339 390 38,000  Level Denver Center
Sun 06:28:17 PM 38.8553 -100.4536 270° West 341 392 38,000  Level Denver Center
Sun 06:29:19 PM 38.8544 -100.5719 270° West 345 397 38,000  Level Denver Center
Sun 06:30:21 PM 38.8558 -100.7078 271° West 344 396 38,000  Level Denver Center
Sun 06:31:23 PM 38.8547 -100.8258 269° West 346 398 38,000  Level Denver Center
Sun 06:32:36 PM 38.8550 -100.9611 270° West 343 395 38,000 -267 Level Denver Center
Sun 06:33:38 PM 38.8542 -101.1172 270° West 344 396 37,400 -726 Descending Denver Center
Sun 06:34:40 PM 38.8533 -101.2283 269° West 327 376 36,500 -919 Descending Denver Center
Sun 06:35:42 PM 38.8533 -101.3389 270° West 324 373 35,500 -1,016 Descending Denver Center
Sun 06:36:44 PM 38.8514 -101.4678 269° West 325 374 34,400 -662 Descending Denver Center
Sun 06:37:58 PM 38.8508 -101.6131 270° West 319 367 34,000 -176 Descending Denver Center
Sun 06:39:00 PM 38.8503 -101.7231 270° West 321 369 34,000  Level Denver Center
Sun 06:40:01 PM 38.8486 -101.8475 269° West 312 359 34,000 -341 Level Denver Center
Sun 06:41:03 PM 38.8481 -101.9528 270° West 308 354 33,300 -774 Descending Denver Center
Sun 06:42:05 PM 38.8444 -102.0553 267° West 303 349 32,400 -927 Descending Denver Center
Sun 06:43:06 PM 38.8436 -102.1756 270° West 302 348 31,400 -829 Descending Denver Center
Sun 06:44:08 PM 38.8419 -102.2803 269° West 306 352 30,700 -871 Descending Denver Center
Sun 06:45:10 PM 38.8400 -102.4081 269° West 319 367 29,600 -829 Descending Denver Center
Sun 06:46:11 PM 38.8383 -102.5131 269° West 309 356 29,000 -293 Descending Denver Center
Sun 06:47:13 PM 38.8358 -102.6319 268° West 298 343 29,000  Level Denver Center
Sun 06:48:14 PM 38.8342 -102.7228 269° West 272 313 29,000  Level Denver Center
Sun 06:49:16 PM 38.8631 -102.8100 293° West 264 304 29,000  Level Denver Center
Sun 06:50:18 PM 38.8972 -102.8817 302° West 231 266 29,000  Level Denver Center
Sun 06:51:19 PM 38.9297 -102.9461 303° West 214 246 29,000  Level Denver Center
Sun 06:52:21 PM 38.9606 -103.0128 301° West 215 247 29,000  Level Denver Center
Sun 06:53:22 PM 38.9969 -103.0764 306° West 219 252 29,000  Level Denver Center
Sun 06:54:24 PM 39.0694 -103.1056 343° North 273 314 29,000 -537 Level Denver Center
Sun 06:55:25 PM 39.1636 -103.0153 37° Northeast 403 464 27,900 -976 Descending Denver Center
Sun 06:56:27 PM 39.1392 -102.8697 102° East 426 490 27,000 -439 Descending Denver Center
Sun 06:57:28 PM 39.0744 -102.7364 122° Southeast 423 487 27,000  Level Denver Center
Sun 06:58:30 PM 38.9983 -102.6550 140° Southeast 389 448 27,000 -48 Level Denver Center
Sun 06:59:32 PM 38.9133 -102.6794 193° South 282 325 26,900 -488 Descending Denver Center
Sun 07:00:33 PM 38.8767 -102.7403 232° Southwest 229 264 26,000 -683 Descending Denver Center
Sun 07:01:35 PM 38.8708 -102.8150 264° West 209 241 25,500 -488 Descending Denver Center
Sun 07:02:36 PM 38.8958 -102.8800 296° West 202 232 25,000 -244 Descending Denver Center
Sun 07:03:38 PM 38.9275 -102.9456 302° West 212 244 25,000  Level Denver Center
Sun 07:04:40 PM 38.9678 -103.0275 302° West 270 311 25,000  Level Denver Center
Sun 07:05:41 PM 39.0089 -103.1150 301° West 282 325 25,000  Level Denver Center
Sun 07:06:43 PM 39.0625 -103.2250 302° West 309 356 25,000 -244 Level Denver Center
Sun 07:07:44 PM 39.1081 -103.3206 302° West 308 354 24,500 -780 Descending Denver Center
Sun 07:08:46 PM 39.1531 -103.4161 301° West 309 356 23,400 -732 Descending Denver Center
Sun 07:09:47 PM 39.1989 -103.5117 302° West 313 360 23,000 -178 Descending Denver Center
Sun 07:11:01 PM 39.2419 -103.6064 300° West 305 351 23,000 -221 Level Denver Center
Sun 07:12:03 PM 39.2944 -103.7169 302° West 306 352 22,500 -1,500 Descending Denver Center
Sun 07:13:05 PM 39.3378 -103.8117 301° West 306 352 19,900 -1,854 Descending Denver Center
Sun 07:14:06 PM 39.3789 -103.9011 301° West 293 337 18,700 -1,317 Descending Denver Center
Sun 07:15:08 PM 39.4094 -103.9919 294° West 250 288 17,200 -1,366 Descending Denver Center
Sun 07:16:09 PM 39.4319 -104.0753 289° West 234 269 15,900 -1,366 Descending Denver Center
Sun 07:17:11 PM 39.5114 -104.0900 352° North 283 326 14,400 -1,258 Descending Denver Center
Sun 07:18:13 PM 39.5819 -104.1200 342° North 267 307 13,300 -976 Descending Denver Center
Sun 07:19:14 PM 39.6394 -104.1472 340° North 260 299 12,400 -1,024 Descending Denver Center
Sun 07:20:16 PM 39.7050 -104.2100 324° Northwest 230 265 11,200 -1,073 Descending Denver Center
Sun 07:21:17 PM 39.7436 -104.2758 307° West 227 261 10,200 -927 Descending Denver Center
Sun 07:22:19 PM 39.7778 -104.3414 304° West 218 251 9,300 -871 Descending Denver Center
Sun 07:23:21 PM 39.7950 -104.4211 286° West 210 242 8,400 -732 Descending Denver Center
Sun 07:24:22 PM 39.8147 -104.4881 291° West 200 230 7,800 -488 Descending Denver Center
Sun 07:25:24 PM 39.8325 -104.5506 290° West 184 212 7,400 -634 Descending Denver Center
Sun 07:26:25 PM 39.8397 -104.6072 279° West 148 170 6,500 -829 Descending Denver Center
Sun 07:27:27 PM 39.8403 -104.6569 271° West 137 158 5,700 -634 Descending Denver Center
Sun 07:28:28 PM 39.8406 -104.6986 271° West 138 159 5,200 -492 Descending Denver Center
Sun 07:30:00 PM 39.8617 -104.6732 North  Level Estimated
Sun 07:37:00 PM 39.8617 -104.6732 201° Southwest  Level Estimated
Sun 07:38:00 PM 39.8617 -104.6732 North  Level Estimated

Login

Don't have an account? Register now (free) for customized features, flight alerts, and more!